Time,TemperatureF,DewpointF,PressureIn,WindDirection,WindDirectionDegrees,WindSpeedMPH,WindSpeedGustMPH,Humidity,HourlyPrecipIn,Conditions,Clouds,dailyrainin,SoftwareType,DateUTC
2013-02-21 00:00:00,41.3,33.3,29.97,NW,315,0.0,0.0,73,0.00,,---,0.00,VWS V14.01,2013-02-21 08:00:00,
2013-02-21 00:02:00,41.1,33.0,29.97,NW,324,0.0,0.0,73,0.00,,,0.00,weatherlink.com 1.10,2013-02-21 08:02:00,
2013-02-21 00:15:00,40.7,33.7,29.97,NW,315,0.0,1.0,76,0.00,,---,0.00,VWS V14.01,2013-02-21 08:15:00,
2013-02-21 00:17:00,40.7,34.0,29.97,NW,325,0.0,1.0,76,0.00,,,0.00,weatherlink.com 1.10,2013-02-21 08:17:00,
2013-02-21 00:30:00,40.6,34.0,29.97,NW,315,0.0,1.0,77,0.00,,---,0.00,VWS V14.01,2013-02-21 08:30:00,
2013-02-21 00:32:00,40.6,34.0,29.97,NNW,329,1.0,1.0,77,0.00,,,0.00,weatherlink.com 1.10,2013-02-21 08:32:00,
2013-02-21 00:45:00,40.5,33.9,29.98,NNW,338,0.0,1.0,77,0.00,,---,0.00,VWS V14.01,2013-02-21 08:45:00,
2013-02-21 00:47:00,40.6,34.0,29.98,NNW,329,0.0,0.0,78,0.00,,,0.00,weatherlink.com 1.10,2013-02-21 08:47:00,
2013-02-21 01:00:00,40.6,34.6,29.99,NNW,338,0.0,0.0,79,0.00,,---,0.00,VWS V14.01,2013-02-21 09:00:00,
2013-02-21 01:02:00,40.6,35.0,29.99,NNW,329,0.0,1.0,79,0.00,,,0.00,weatherlink.com 1.10,2013-02-21 09:02:00,
2013-02-21 01:15:00,40.6,35.2,29.99,NNW,338,0.0,1.0,81,0.00,,---,0.00,VWS V14.01,2013-02-21 09:15:00,
2013-02-21 01:17:00,40.6,35.0,29.99,NNW,329,0.0,1.0,81,0.00,,,0.00,weatherlink.com 1.10,2013-02-21 09:17:00,
2013-02-21 01:30:00,40.6,35.8,29.99,NNW,338,0.0,0.0,83,0.00,,---,0.00,VWS V14.01,2013-02-21 09:30:00,
2013-02-21 01:33:00,40.5,35.0,29.99,NNW,329,0.0,0.0,82,0.00,,,0.00,weatherlink.com 1.10,2013-02-21 09:33:00,
2013-02-21 01:45:00,39.8,35.1,29.99,NNW,338,0.0,1.0,83,0.00,,---,0.00,VWS V14.01,2013-02-21 09:45:00,
2013-02-21 01:48:00,39.8,36.0,29.99,NNW,329,0.0,1.0,85,0.00,,,0.00,weatherlink.com 1.10,2013-02-21 09:48:00,
2013-02-21 02:00:00,39.7,36.4,29.99,NNW,338,0.0,1.0,88,0.00,,---,0.00,VWS V14.01,2013-02-21 10:00:00,
2013-02-21 02:03:00,40.0,37.0,29.98,East,98,0.0,2.0,90,0.00,,,0.00,weatherlink.com 1.10,2013-02-21 10:03:00,
2013-02-21 02:15:00,41.4,39.0,29.98,East,90,1.0,3.0,91,0.00,,---,0.00,VWS V14.01,2013-02-21 10:15:00,
2013-02-21 02:18:00,41.6,39.0,29.98,East,87,0.0,3.0,90,0.00,,,0.00,weatherlink.com 1.10,2013-02-21 10:18:00,
2013-02-21 02:30:00,41.9,38.9,29.97,East,90,0.0,2.0,89,0.00,,---,0.00,VWS V14.01,2013-02-21 10:30:00,
2013-02-21 02:33:00,42.0,39.0,29.97,East,84,0.0,2.0,89,0.00,,,0.00,weatherlink.com 1.10,2013-02-21 10:33:00,
2013-02-21 02:45:00,42.1,39.1,29.98,East,90,0.0,3.0,89,0.00,,---,0.00,VWS V14.01,2013-02-21 10:45:00,
2013-02-21 02:48:00,42.2,39.0,29.98,ENE,67,0.0,3.0,89,0.00,,,0.00,weatherlink.com 1.10,2013-02-21 10:48:00,
2013-02-21 03:00:00,42.5,39.5,29.97,ENE,68,1.0,3.0,89,0.00,,---,0.00,VWS V14.01,2013-02-21 11:00:00,
2013-02-21 03:03:00,42.6,40.0,29.97,ENE,71,0.0,3.0,89,0.00,,,0.00,weatherlink.com 1.10,2013-02-21 11:03:00,
2013-02-21 03:15:00,42.9,39.9,29.97,ENE,68,1.0,5.0,89,0.00,,---,0.00,VWS V14.01,2013-02-21 11:15:00,
2013-02-21 03:18:00,43.1,40.0,29.97,ENE,68,1.0,5.0,89,0.00,,,0.00,weatherlink.com 1.10,2013-02-21 11:18:00,
2013-02-21 03:30:00,43.5,40.2,29.97,ENE,68,1.0,5.0,88,0.00,,---,0.00,VWS V14.01,2013-02-21 11:30:00,
2013-02-21 03:33:00,43.7,40.0,29.98,East,90,0.0,5.0,87,0.00,,,0.00,weatherlink.com 1.10,2013-02-21 11:33:00,
2013-02-21 03:45:00,43.8,39.9,29.98,East,90,1.0,5.0,86,0.00,,---,0.00,VWS V14.01,2013-02-21 11:45:00,
2013-02-21 03:48:00,43.8,40.0,29.98,East,90,0.0,2.0,86,0.00,,,0.00,weatherlink.com 1.10,2013-02-21 11:48:00,
2013-02-21 04:00:00,43.4,39.5,29.98,East,90,0.0,2.0,86,0.00,,---,0.00,VWS V14.01,2013-02-21 12:00:00,
2013-02-21 04:03:00,43.2,39.0,29.98,East,90,1.0,2.0,86,0.00,,,0.00,weatherlink.com 1.10,2013-02-21 12:03:00,
2013-02-21 04:15:00,43.0,39.4,29.99,East,90,1.0,3.0,87,0.00,,---,0.00,VWS V14.01,2013-02-21 12:15:00,
2013-02-21 04:18:00,43.1,40.0,29.99,ENE,61,1.0,3.0,87,0.00,,,0.00,weatherlink.com 1.10,2013-02-21 12:18:00,
2013-02-21 04:30:00,43.3,39.7,29.99,ENE,68,1.0,4.0,87,0.00,,---,0.00,VWS V14.01,2013-02-21 12:30:00,
2013-02-21 04:33:00,43.4,40.0,29.99,ENE,58,2.0,4.0,87,0.00,,,0.00,weatherlink.com 1.10,2013-02-21 12:33:00,
2013-02-21 04:45:00,43.3,39.4,29.99,ENE,68,1.0,3.0,86,0.00,,---,0.00,VWS V14.01,2013-02-21 12:45:00,
2013-02-21 04:48:00,43.2,39.0,29.99,ENE,61,0.0,2.0,86,0.00,,,0.00,weatherlink.com 1.10,2013-02-21 12:48:00,
2013-02-21 05:00:00,42.9,39.3,29.99,ENE,68,1.0,2.0,87,0.00,,---,0.00,VWS V14.01,2013-02-21 13:00:00,
2013-02-21 05:03:00,42.9,39.0,29.99,NE,55,2.0,5.0,87,0.00,,,0.00,weatherlink.com 1.10,2013-02-21 13:03:00,
2013-02-21 05:15:00,42.9,39.3,29.99,NE,45,1.0,5.0,87,0.00,,---,0.00,VWS V14.01,2013-02-21 13:15:00,
2013-02-21 05:18:00,42.9,39.0,29.99,NE,53,1.0,3.0,87,0.00,,,0.00,weatherlink.com 1.10,2013-02-21 13:18:00,
2013-02-21 05:30:00,42.9,39.3,29.99,NE,45,1.0,3.0,87,0.00,,---,0.00,VWS V14.01,2013-02-21 13:30:00,
2013-02-21 05:33:00,42.8,39.0,29.99,ENE,62,0.0,2.0,87,0.00,,,0.00,weatherlink.com 1.10,2013-02-21 13:33:00,
2013-02-21 05:45:00,42.9,39.6,29.99,ENE,68,1.0,3.0,88,0.00,,---,0.00,VWS V14.01,2013-02-21 13:45:00,
2013-02-21 05:48:00,43.0,40.0,29.99,ENE,65,1.0,3.0,88,0.00,,,0.00,weatherlink.com 1.10,2013-02-21 13:48:00,
2013-02-21 06:00:00,43.3,40.0,30.00,ENE,68,1.0,3.0,88,0.00,,---,0.00,VWS V14.01,2013-02-21 14:00:00,
2013-02-21 06:03:00,43.4,40.0,30.00,ENE,67,1.0,3.0,88,0.00,,,0.00,weatherlink.com 1.10,2013-02-21 14:03:00,
2013-02-21 06:15:00,43.6,40.3,30.00,ENE,68,1.0,3.0,88,0.00,,---,0.00,VWS V14.01,2013-02-21 14:15:00,
2013-02-21 06:18:00,43.6,40.0,30.00,ENE,69,1.0,3.0,87,0.00,,,0.00,weatherlink.com 1.10,2013-02-21 14:18:00,
2013-02-21 06:30:00,43.5,40.2,30.00,ENE,68,0.0,2.0,88,0.00,,---,0.00,VWS V14.01,2013-02-21 14:30:00,
2013-02-21 06:33:00,43.4,40.0,30.00,ENE,68,0.0,2.0,88,0.00,,,0.00,weatherlink.com 1.10,2013-02-21 14:33:00,
2013-02-21 06:45:00,43.4,40.1,30.00,ENE,68,1.0,2.0,88,0.00,,---,0.00,VWS V14.01,2013-02-21 14:45:00,
2013-02-21 06:48:00,43.4,40.0,30.00,ENE,67,0.0,2.0,88,0.00,,,0.00,weatherlink.com 1.10,2013-02-21 14:48:00,
2013-02-21 07:00:00,43.4,40.1,30.00,ENE,68,0.0,2.0,88,0.00,,---,0.00,VWS V14.01,2013-02-21 15:00:00,
2013-02-21 07:03:00,43.4,40.0,30.01,ENE,67,1.0,3.0,88,0.00,,,0.00,weatherlink.com 1.10,2013-02-21 15:03:00,
2013-02-21 07:15:00,43.8,40.8,30.00,ENE,68,1.0,3.0,89,0.00,,---,0.00,VWS V14.01,2013-02-21 15:15:00,
2013-02-21 07:18:00,44.1,41.0,30.01,ENE,65,0.0,3.0,89,0.00,,,0.00,weatherlink.com 1.10,2013-02-21 15:18:00,
2013-02-21 07:30:00,45.6,42.0,30.01,ENE,68,1.0,3.0,87,0.00,,---,0.00,VWS V14.01,2013-02-21 15:30:00,
2013-02-21 07:33:00,46.3,42.0,30.01,NE,53,1.0,4.0,86,0.00,,,0.00,weatherlink.com 1.10,2013-02-21 15:33:00,
2013-02-21 07:45:00,48.0,42.8,30.01,NE,45,2.0,6.0,82,0.00,,---,0.00,VWS V14.01,2013-02-21 15:45:00,
2013-02-21 07:48:00,48.6,43.0,30.02,ENE,63,2.0,8.0,80,0.00,,,0.00,weatherlink.com 1.10,2013-02-21 15:48:00,
2013-02-21 08:00:00,50.1,43.5,30.02,NE,45,2.0,8.0,78,0.00,,---,0.00,VWS V14.01,2013-02-21 16:00:00,
2013-02-21 08:03:00,50.6,44.0,30.02,NE,34,2.0,5.0,77,0.00,,,0.00,weatherlink.com 1.10,2013-02-21 16:03:00,
2013-02-21 08:15:00,51.8,43.8,30.02,NE,45,2.0,7.0,74,0.00,,---,0.00,VWS V14.01,2013-02-21 16:15:00,
2013-02-21 08:18:00,52.2,44.0,30.02,NE,51,2.0,7.0,73,0.00,,,0.00,weatherlink.com 1.10,2013-02-21 16:18:00,
2013-02-21 08:30:00,53.0,44.2,30.02,ENE,68,2.0,6.0,72,0.00,,---,0.00,VWS V14.01,2013-02-21 16:30:00,
2013-02-21 08:33:00,53.3,44.0,30.02,NE,41,4.0,6.0,71,0.00,,,0.00,weatherlink.com 1.10,2013-02-21 16:33:00,
2013-02-21 08:45:00,54.1,44.5,30.02,ENE,68,3.0,8.0,70,0.00,,---,0.00,VWS V14.01,2013-02-21 16:45:00,
2013-02-21 08:48:00,54.3,45.0,30.02,NE,52,4.0,8.0,70,0.00,,,0.00,weatherlink.com 1.10,2013-02-21 16:48:00,
2013-02-21 09:00:00,54.2,44.6,30.02,ENE,68,3.0,8.0,70,0.00,,---,0.00,VWS V14.01,2013-02-21 17:00:00,
2013-02-21 09:03:00,54.4,45.0,30.02,ENE,67,3.0,7.0,70,0.00,,,0.00,weatherlink.com 1.10,2013-02-21 17:03:00,
2013-02-21 09:15:00,55.3,44.9,30.03,ENE,68,2.0,7.0,68,0.00,,---,0.00,VWS V14.01,2013-02-21 17:15:00,
2013-02-21 09:19:00,55.1,45.0,30.02,ENE,63,1.0,5.0,68,0.00,,,0.00,weatherlink.com 1.10,2013-02-21 17:19:00,
2013-02-21 09:30:00,55.0,45.0,30.03,ENE,68,1.0,5.0,69,0.00,,---,0.00,VWS V14.01,2013-02-21 17:30:00,
2013-02-21 09:34:00,55.6,46.0,30.02,East,99,0.0,5.0,70,0.00,,,0.00,weatherlink.com 1.10,2013-02-21 17:34:00,
2013-02-21 09:45:00,57.5,46.2,30.03,ENE,68,1.0,7.0,66,0.00,,---,0.00,VWS V14.01,2013-02-21 17:45:00,
2013-02-21 09:49:00,58.2,47.0,30.04,NNE,33,1.0,4.0,66,0.00,,,0.00,weatherlink.com 1.10,2013-02-21 17:49:00,
2013-02-21 10:00:00,59.1,46.5,30.04,NNE,22,1.0,4.0,63,0.00,,---,0.00,VWS V14.01,2013-02-21 18:00:00,
2013-02-21 10:04:00,59.0,45.0,30.03,ENE,75,1.0,3.0,61,0.00,,,0.00,weatherlink.com 1.10,2013-02-21 18:04:00,
2013-02-21 10:15:00,58.9,45.5,30.03,ENE,68,1.0,5.0,61,0.00,,---,0.00,VWS V14.01,2013-02-21 18:15:00,
2013-02-21 10:19:00,58.8,45.0,30.03,East,89,0.0,5.0,61,0.00,,,0.00,weatherlink.com 1.10,2013-02-21 18:19:00,
2013-02-21 10:30:00,58.3,45.3,30.04,East,90,0.0,5.0,62,0.00,,---,0.00,VWS V14.01,2013-02-21 18:30:00,
2013-02-21 10:34:00,58.0,45.0,30.04,East,89,0.0,1.0,62,0.00,,,0.00,weatherlink.com 1.10,2013-02-21 18:34:00,
2013-02-21 10:45:00,58.1,45.2,30.03,NE,45,0.0,3.0,62,0.00,,---,0.00,VWS V14.01,2013-02-21 18:45:00,
2013-02-21 10:49:00,58.0,44.0,30.03,NNE,25,2.0,3.0,61,0.00,,,0.00,weatherlink.com 1.10,2013-02-21 18:49:00,
2013-02-21 11:00:00,57.6,45.1,30.02,NW,315,1.0,3.0,63,0.00,,---,0.00,VWS V14.01,2013-02-21 19:00:00,
2013-02-21 11:04:00,57.2,45.0,30.02,SW,233,1.0,5.0,63,0.00,,,0.00,weatherlink.com 1.10,2013-02-21 19:04:00,
2013-02-21 11:15:00,57.0,45.4,30.01,SW,225,1.0,5.0,65,0.00,,---,0.00,VWS V14.01,2013-02-21 19:15:00,
2013-02-21 11:19:00,57.7,45.0,30.01,SW,233,0.0,3.0,64,0.00,,,0.00,weatherlink.com 1.10,2013-02-21 19:19:00,
2013-02-21 11:30:00,59.7,46.2,30.00,SE,135,1.0,8.0,61,0.00,,---,0.00,VWS V14.01,2013-02-21 19:30:00,
2013-02-21 11:34:00,60.7,46.0,30.00,ENE,61,0.0,5.0,58,0.00,,,0.00,weatherlink.com 1.10,2013-02-21 19:34:00,
2013-02-21 11:47:00,59.7,46.2,30.00,SE,135,1.0,8.0,61,0.00,,---,0.00,VWS V14.01,2013-02-21 19:47:00,
2013-02-21 11:52:00,62.6,45.7,29.99,SSW,200,0.0,3.0,54,0.00,,---,0.00,VWS V14.01,2013-02-21 19:52:00,
2013-02-21 11:57:00,62.2,44.9,29.99,SSW,195,4.0,5.0,53,0.00,,---,0.00,VWS V14.01,2013-02-21 19:57:00,
2013-02-21 12:00:00,61.9,44.6,29.99,SW,215,3.0,5.0,53,0.00,,---,0.00,VWS V14.01,2013-02-21 20:00:00,
2013-02-21 12:02:00,61.7,44.4,29.99,ENE,57,3.0,3.0,53,0.00,,---,0.00,VWS V14.01,2013-02-21 20:02:00,
2013-02-21 12:15:00,61.0,44.2,29.98,East,90,2.0,7.0,54,0.00,,---,0.00,VWS V14.01,2013-02-21 20:15:00,
2013-02-21 12:21:00,61.5,43.0,29.98,West,263,2.0,4.0,51,0.00,,,0.00,weatherlink.com 1.10,2013-02-21 20:21:00,
2013-02-21 12:30:00,61.1,43.4,29.98,West,270,1.0,5.0,52,0.00,,---,0.00,VWS V14.01,2013-02-21 20:30:00,
2013-02-21 12:36:00,61.9,43.0,29.98,WNW,298,1.0,5.0,51,0.00,,,0.00,weatherlink.com 1.10,2013-02-21 20:36:00,
2013-02-21 12:45:00,61.4,42.1,29.98,West,270,1.0,5.0,49,0.00,,---,0.00,VWS V14.01,2013-02-21 20:45:00,
2013-02-21 12:51:00,61.1,46.0,29.97,SSW,202,0.0,3.0,59,0.00,,,0.00,weatherlink.com 1.10,2013-02-21 20:51:00,
2013-02-21 13:00:00,59.6,46.6,29.97,WSW,248,1.0,8.0,62,0.00,,---,0.00,VWS V14.01,2013-02-21 21:00:00,
2013-02-21 13:06:00,58.9,46.0,29.97,SW,235,0.0,5.0,62,0.00,,,0.00,weatherlink.com 1.10,2013-02-21 21:06:00,
2013-02-21 13:15:00,59.2,46.2,29.97,WSW,248,1.0,5.0,62,0.00,,---,0.00,VWS V14.01,2013-02-21 21:15:00,
2013-02-21 13:30:00,62.4,47.5,29.96,SSW,202,3.0,7.0,58,0.00,,---,0.00,VWS V14.01,2013-02-21 21:30:00,
2013-02-21 13:36:00,62.9,46.0,29.96,South,188,6.0,6.0,55,0.00,,,0.00,weatherlink.com 1.10,2013-02-21 21:36:00,
2013-02-21 13:45:00,63.6,48.1,29.96,SSW,202,3.0,7.0,57,0.00,,---,0.00,VWS V14.01,2013-02-21 21:45:00,
2013-02-21 13:51:00,63.8,46.0,29.95,SW,233,5.0,8.0,53,0.00,,,0.00,weatherlink.com 1.10,2013-02-21 21:51:00,
2013-02-21 14:00:00,60.5,46.6,29.96,WSW,248,5.0,13.0,60,0.00,,---,0.00,VWS V14.01,2013-02-21 22:00:00,
2013-02-21 14:06:00,60.7,47.0,29.96,South,182,4.0,10.0,60,0.00,,,0.00,weatherlink.com 1.10,2013-02-21 22:06:00,
2013-02-21 14:15:00,61.6,46.7,29.96,WSW,248,3.0,10.0,58,0.00,,---,0.00,VWS V14.01,2013-02-21 22:15:00,
2013-02-21 14:21:00,62.3,47.0,29.96,WSW,257,9.0,11.0,57,0.00,,,0.00,weatherlink.com 1.10,2013-02-21 22:21:00,
2013-02-21 14:30:00,62.4,47.0,29.96,SSW,202,4.0,11.0,57,0.00,,---,0.00,VWS V14.01,2013-02-21 22:30:00,
2013-02-21 14:35:00,62.5,46.0,29.96,South,189,6.0,10.0,56,0.00,,,0.00,weatherlink.com 1.10,2013-02-21 22:35:00,
2013-02-21 14:45:00,63.1,46.2,29.95,SSW,202,3.0,8.0,54,0.00,,---,0.00,VWS V14.01,2013-02-21 22:45:00,
2013-02-21 14:50:00,64.0,45.0,29.95,SSE,149,3.0,5.0,51,0.00,,,0.00,weatherlink.com 1.10,2013-02-21 22:50:00,
2013-02-21 15:00:00,64.4,45.9,29.95,SSW,202,2.0,6.0,51,0.00,,---,0.00,VWS V14.01,2013-02-21 23:00:00,
2013-02-21 15:05:00,63.0,48.0,29.95,South,186,5.0,9.0,58,0.00,,,0.00,weatherlink.com 1.10,2013-02-21 23:05:00,
2013-02-21 15:15:00,61.7,46.3,29.95,SW,225,5.0,13.0,57,0.00,,---,0.00,VWS V14.01,2013-02-21 23:15:00,
2013-02-21 15:20:00,61.2,46.0,29.95,WSW,246,5.0,13.0,58,0.00,,,0.00,weatherlink.com 1.10,2013-02-21 23:20:00,
2013-02-21 15:30:00,60.7,46.3,29.95,WSW,248,5.0,11.0,59,0.00,,---,0.00,VWS V14.01,2013-02-21 23:30:00,
2013-02-21 15:35:00,61.2,46.0,29.95,WSW,241,2.0,11.0,57,0.00,,,0.00,weatherlink.com 1.10,2013-02-21 23:35:00,
2013-02-21 15:45:00,61.2,44.9,29.95,WSW,248,4.0,11.0,55,0.00,,---,0.00,VWS V14.01,2013-02-21 23:45:00,
2013-02-21 15:50:00,61.1,44.0,29.95,WSW,247,3.0,10.0,54,0.00,,,0.00,weatherlink.com 1.10,2013-02-21 23:50:00,
2013-02-21 16:00:00,60.7,44.0,29.95,WSW,248,4.0,10.0,54,0.00,,---,0.00,VWS V14.01,2013-02-22 00:00:00,
2013-02-21 16:05:00,61.0,44.0,29.95,SSW,209,3.0,10.0,53,0.00,,,0.00,weatherlink.com 1.10,2013-02-22 00:05:00,
2013-02-21 16:15:00,60.9,43.2,29.95,WSW,248,4.0,10.0,52,0.00,,---,0.00,VWS V14.01,2013-02-22 00:15:00,
2013-02-21 16:20:00,60.6,43.0,29.95,West,264,2.0,9.0,53,0.00,,,0.00,weatherlink.com 1.10,2013-02-22 00:20:00,
2013-02-21 16:30:00,60.8,43.1,29.95,WSW,248,4.0,9.0,52,0.00,,---,0.00,VWS V14.01,2013-02-22 00:30:00,
2013-02-21 16:35:00,61.3,43.0,29.95,WSW,238,3.0,9.0,52,0.00,,,0.00,weatherlink.com 1.10,2013-02-22 00:35:00,
2013-02-21 16:45:00,61.6,43.8,29.95,WSW,248,3.0,7.0,52,0.00,,---,0.00,VWS V14.01,2013-02-22 00:45:00,
2013-02-21 16:50:00,61.5,44.0,29.96,South,171,9.0,10.0,54,0.00,,,0.00,weatherlink.com 1.10,2013-02-22 00:50:00,
2013-02-21 17:00:00,60.0,47.0,29.96,SSW,202,5.0,13.0,62,0.00,,---,0.00,VWS V14.01,2013-02-22 01:00:00,
2013-02-21 17:05:00,59.1,47.0,29.97,SW,215,5.0,9.0,64,0.00,,,0.00,weatherlink.com 1.10,2013-02-22 01:05:00,
2013-02-21 17:15:00,58.3,46.6,29.96,SSW,202,5.0,10.0,65,0.00,,---,0.00,VWS V14.01,2013-02-22 01:15:00,
2013-02-21 17:20:00,57.9,47.0,29.97,WSW,247,1.0,7.0,67,0.00,,,0.00,weatherlink.com 1.10,2013-02-22 01:20:00,
2013-02-21 17:30:00,57.3,46.0,29.98,WSW,248,2.0,7.0,66,0.00,,---,0.00,VWS V14.01,2013-02-22 01:30:00,
2013-02-21 17:36:00,56.9,44.0,29.98,West,269,0.0,7.0,63,0.00,,,0.00,weatherlink.com 1.10,2013-02-22 01:36:00,
2013-02-21 17:45:00,56.7,44.7,29.98,West,270,3.0,7.0,64,0.00,,---,0.00,VWS V14.01,2013-02-22 01:45:00,
2013-02-21 17:51:00,56.4,45.0,29.99,West,269,3.0,7.0,65,0.00,,,0.00,weatherlink.com 1.10,2013-02-22 01:51:00,
2013-02-21 18:00:00,56.0,44.8,29.99,West,270,2.0,7.0,66,0.00,,---,0.00,VWS V14.01,2013-02-22 02:00:00,
2013-02-21 18:06:00,55.6,44.0,30.00,West,281,2.0,6.0,66,0.00,,,0.00,weatherlink.com 1.10,2013-02-22 02:06:00,
2013-02-21 18:15:00,55.2,44.0,30.00,WNW,292,2.0,7.0,66,0.00,,---,0.00,VWS V14.01,2013-02-22 02:15:00,
2013-02-21 18:21:00,54.9,44.0,30.00,West,278,0.0,7.0,67,0.00,,,0.00,weatherlink.com 1.10,2013-02-22 02:21:00,
2013-02-21 18:30:00,54.5,44.2,30.00,WNW,292,2.0,5.0,68,0.00,,---,0.00,VWS V14.01,2013-02-22 02:30:00,
2013-02-21 18:36:00,54.2,44.0,30.00,WNW,288,0.0,5.0,68,0.00,,,0.00,weatherlink.com 1.10,2013-02-22 02:36:00,
2013-02-21 18:45:00,54.0,44.1,30.01,WNW,292,1.0,5.0,69,0.00,,---,0.00,VWS V14.01,2013-02-22 02:45:00,
2013-02-21 18:51:00,53.6,44.0,30.01,West,263,0.0,2.0,70,0.00,,,0.00,weatherlink.com 1.10,2013-02-22 02:51:00,
2013-02-21 19:00:00,53.1,43.6,30.01,West,270,0.0,2.0,70,0.00,,---,0.00,VWS V14.01,2013-02-22 03:00:00,
2013-02-21 19:06:00,52.6,43.0,30.01,West,263,0.0,1.0,71,0.00,,,0.00,weatherlink.com 1.10,2013-02-22 03:06:00,
2013-02-21 19:15:00,52.0,43.6,30.02,West,270,0.0,1.0,73,0.00,,---,0.00,VWS V14.01,2013-02-22 03:15:00,
2013-02-21 19:21:00,51.4,43.0,30.03,West,263,0.0,0.0,74,0.00,,,0.00,weatherlink.com 1.10,2013-02-22 03:21:00,
2013-02-21 19:30:00,50.9,43.3,30.03,West,270,0.0,1.0,75,0.00,,---,0.00,VWS V14.01,2013-02-22 03:30:00,
2013-02-21 19:36:00,50.5,43.0,30.03,West,263,0.0,1.0,75,0.00,,,0.00,weatherlink.com 1.10,2013-02-22 03:36:00,
2013-02-21 19:45:00,50.1,42.8,30.03,West,270,0.0,0.0,76,0.00,,---,0.00,VWS V14.01,2013-02-22 03:45:00,
2013-02-21 19:51:00,49.7,43.0,30.04,West,263,0.0,0.0,77,0.00,,,0.00,weatherlink.com 1.10,2013-02-22 03:51:00,
2013-02-21 20:00:00,49.3,42.7,30.04,West,270,0.0,0.0,78,0.00,,---,0.00,VWS V14.01,2013-02-22 04:00:00,
2013-02-21 20:06:00,48.9,42.0,30.04,West,263,0.0,0.0,78,0.00,,,0.00,weatherlink.com 1.10,2013-02-22 04:06:00,
2013-02-21 20:15:00,48.5,42.3,30.04,West,270,0.0,0.0,79,0.00,,---,0.00,VWS V14.01,2013-02-22 04:15:00,
2013-02-21 20:21:00,48.1,42.0,30.04,West,263,0.0,0.0,80,0.00,,,0.00,weatherlink.com 1.10,2013-02-22 04:21:00,
2013-02-21 20:30:00,47.8,41.9,30.05,West,270,0.0,0.0,80,0.00,,---,0.00,VWS V14.01,2013-02-22 04:30:00,
2013-02-21 20:36:00,47.4,42.0,30.05,West,263,0.0,1.0,81,0.00,,,0.00,weatherlink.com 1.10,2013-02-22 04:36:00,
2013-02-21 20:45:00,47.0,41.5,30.05,West,270,0.0,1.0,81,0.00,,---,0.00,VWS V14.01,2013-02-22 04:45:00,
2013-02-21 21:00:00,46.3,41.4,30.05,West,270,0.0,0.0,83,0.00,,---,0.00,VWS V14.01,2013-02-22 05:00:00,
2013-02-21 21:06:00,46.1,42.0,30.06,West,263,0.0,0.0,84,0.00,,,0.00,weatherlink.com 1.10,2013-02-22 05:06:00,
2013-02-21 21:15:00,45.9,41.3,30.06,West,270,0.0,0.0,84,0.00,,---,0.00,VWS V14.01,2013-02-22 05:15:00,
2013-02-21 21:21:00,45.7,42.0,30.06,West,263,0.0,0.0,85,0.00,,,0.00,weatherlink.com 1.10,2013-02-22 05:21:00,
2013-02-21 21:30:00,45.5,41.3,30.06,West,270,0.0,0.0,85,0.00,,---,0.00,VWS V14.01,2013-02-22 05:30:00,
2013-02-21 21:36:00,45.3,41.0,30.06,West,263,0.0,0.0,86,0.00,,,0.00,weatherlink.com 1.10,2013-02-22 05:36:00,
2013-02-21 21:45:00,45.0,41.1,30.06,West,270,0.0,0.0,86,0.00,,---,0.00,VWS V14.01,2013-02-22 05:45:00,
2013-02-21 21:51:00,44.7,41.0,30.06,West,263,0.0,0.0,87,0.00,,,0.00,weatherlink.com 1.10,2013-02-22 05:51:00,
2013-02-21 22:00:00,44.8,41.5,30.06,West,270,0.0,1.0,88,0.00,,---,0.00,VWS V14.01,2013-02-22 06:00:00,
2013-02-21 22:06:00,44.7,41.0,30.06,West,259,0.0,2.0,88,0.00,,,0.00,weatherlink.com 1.10,2013-02-22 06:06:00,
2013-02-21 22:15:00,44.7,41.1,30.06,West,270,0.0,2.0,87,0.00,,---,0.00,VWS V14.01,2013-02-22 06:15:00,
2013-02-21 22:21:00,44.4,41.0,30.06,West,259,0.0,1.0,87,0.00,,,0.00,weatherlink.com 1.10,2013-02-22 06:21:00,
2013-02-21 22:30:00,44.2,40.6,30.06,West,270,0.0,1.0,87,0.00,,---,0.00,VWS V14.01,2013-02-22 06:30:00,
2013-02-21 22:36:00,44.0,41.0,30.07,West,259,0.0,0.0,88,0.00,,,0.00,weatherlink.com 1.10,2013-02-22 06:36:00,
2013-02-21 22:45:00,43.7,40.4,30.07,West,270,0.0,1.0,88,0.00,,---,0.00,VWS V14.01,2013-02-22 06:45:00,
2013-02-21 22:52:00,43.4,40.0,30.07,West,259,0.0,0.0,88,0.00,,,0.00,weatherlink.com 1.10,2013-02-22 06:52:00,
2013-02-21 23:00:00,43.1,39.8,30.07,West,270,0.0,0.0,88,0.00,,---,0.00,VWS V14.01,2013-02-22 07:00:00,
2013-02-21 23:07:00,42.8,40.0,30.07,West,259,0.0,0.0,89,0.00,,,0.00,weatherlink.com 1.10,2013-02-22 07:07:00,
2013-02-21 23:15:00,42.6,39.6,30.07,West,270,0.0,0.0,89,0.00,,---,0.00,VWS V14.01,2013-02-22 07:15:00,
2013-02-21 23:22:00,42.3,39.0,30.07,West,259,0.0,0.0,89,0.00,,,0.00,weatherlink.com 1.10,2013-02-22 07:22:00,
2013-02-21 23:30:00,42.0,39.0,30.07,West,270,0.0,0.0,89,0.00,,---,0.00,VWS V14.01,2013-02-22 07:30:00,
2013-02-21 23:37:00,41.9,39.0,30.07,West,259,0.0,0.0,90,0.00,,,0.00,weatherlink.com 1.10,2013-02-22 07:37:00,
2013-02-21 23:45:00,41.5,38.5,30.08,West,270,0.0,0.0,89,0.00,,---,0.00,VWS V14.01,2013-02-22 07:45:00,
2013-02-21 23:52:00,41.1,38.0,30.08,West,259,0.0,0.0,90,0.00,,,0.00,weatherlink.com 1.10,2013-02-22 07:52:00,